Time;durP1;ratioP1;P1;durP2;ratioP2;P2;SDS_P1;SDS_P2;PMS_P1;PMS_P2;Temp;Humidity;BMP_temperature;BMP_pressure;BME280_temperature;BME280_humidity;BME280_pressure;Samples;Min_cycle;Max_cycle;Signal;HPM_P1;HPM_P2
2021/01/31 00:00:31;;;;;;;284.70;161.50;;;179.20;2252.80;;;;;;6159077;23;20100;-92
2021/01/31 00:03:02;;;;;;;330.03;183.83;;;179.30;2252.80;;;;;;6190330;23;20005;-91
2021/01/31 00:05:38;;;;;;;299.27;186.02;;;179.20;2252.80;;;;;;6195343;23;20024;-93
2021/01/31 00:13:56;;;;;;;283.00;175.33;;;154.30;2252.80;;;;;;6206256;23;20028;-92
2021/01/31 00:23:06;;;;;;;328.97;201.93;;;179.30;2252.80;;;;;;6229206;23;20019;-90
2021/01/31 00:25:32;;;;;;;354.10;221.03;;;179.20;2252.80;;;;;;6218142;23;20326;-87
2021/01/31 00:27:58;;;;;;;366.43;221.20;;;154.50;2252.80;;;;;;6190452;23;20004;-90
2021/01/31 00:30:33;;;;;;;319.90;197.27;;;179.20;2252.80;;;;;;6191565;23;20004;-89
2021/01/31 00:32:59;;;;;;;295.57;174.20;;;154.50;2252.80;;;;;;6191889;23;20032;-92
2021/01/31 00:35:27;;;;;;;280.93;171.83;;;154.50;2252.80;;;;;;6191735;23;20004;-89
2021/01/31 00:37:54;;;;;;;362.70;223.37;;;179.20;2252.80;;;;;;6192325;23;20059;-90
2021/01/31 00:40:20;;;;;;;326.53;200.10;;;179.20;2252.80;;;;;;6190921;23;20434;-90
2021/01/31 00:42:46;;;;;;;339.17;207.63;;;154.30;2252.80;;;;;;6191221;23;20071;-90
2021/01/31 00:45:19;;;;;;;331.63;201.70;;;154.10;2252.80;;;;;;6191880;23;20018;-90
2021/01/31 00:47:45;;;;;;;342.30;206.93;;;154.30;2252.80;;;;;;6190758;23;20032;-90
2021/01/31 00:50:17;;;;;;;331.83;191.73;;;154.40;2252.80;;;;;;6191326;23;20031;-90
2021/01/31 00:52:43;;;;;;;322.50;188.80;;;154.30;2252.80;;;;;;6191189;23;20000;-90
2021/01/31 00:55:09;;;;;;;280.27;169.27;;;154.50;2252.80;;;;;;6190681;23;20015;-90
2021/01/31 00:57:35;;;;;;;276.40;169.77;;;154.40;2252.80;;;;;;6190780;23;20069;-90
2021/01/31 01:00:07;;;;;;;308.00;184.73;;;154.50;2252.80;;;;;;6191173;23;20005;-90
2021/01/31 01:02:34;;;;;;;327.20;198.73;;;154.50;2252.80;;;;;;6191484;23;20012;-91
2021/01/31 01:05:00;;;;;;;364.63;221.57;;;154.40;2252.80;;;;;;6190670;23;20009;-90
2021/01/31 01:07:26;;;;;;;395.00;237.30;;;154.50;2252.80;;;;;;6190918;23;20063;-91
2021/01/31 01:09:51;;;;;;;377.73;231.25;;;154.40;2252.80;;;;;;6190724;23;20378;-87
2021/01/31 01:12:17;;;;;;;329.77;202.33;;;154.40;2252.80;;;;;;6191711;23;20168;-90
2021/01/31 01:14:42;;;;;;;309.60;188.47;;;154.30;2252.80;;;;;;6192699;23;20007;-91
2021/01/31 01:17:08;;;;;;;279.27;170.43;;;154.20;2252.80;;;;;;6192697;23;20008;-90
2021/01/31 01:19:34;;;;;;;229.83;143.43;;;154.30;2252.80;;;;;;6192155;23;20001;-91
2021/01/31 01:21:59;;;;;;;227.85;140.52;;;154.30;2252.80;;;;;;6192477;23;20005;-92
2021/01/31 01:24:25;;;;;;;198.80;122.33;;;154.20;2252.80;;;;;;6218221;23;20043;-92
2021/01/31 01:26:52;;;;;;;183.53;113.50;;;154.20;2252.80;;;;;;6191860;23;20412;-90
2021/01/31 01:29:18;;;;;;;220.67;134.57;;;154.20;2252.80;;;;;;6192176;23;20016;-87
2021/01/31 01:31:43;;;;;;;240.80;145.97;;;154.00;2252.80;;;;;;6192242;23;20004;-89
2021/01/31 01:34:09;;;;;;;227.23;139.93;;;154.10;2252.80;;;;;;6191799;23;20381;-90
2021/01/31 01:36:35;;;;;;;214.87;133.53;;;154.30;2252.80;;;;;;6192553;23;20016;-90
2021/01/31 01:39:01;;;;;;;198.97;119.03;;;154.30;2252.80;;;;;;6192566;23;20000;-91
2021/01/31 01:41:35;;;;;;;239.40;150.77;;;154.30;2252.80;;;;;;6192535;23;20004;-90
2021/01/31 01:44:01;;;;;;;234.27;143.53;;;154.20;2252.80;;;;;;6192400;23;20335;-89
2021/01/31 01:46:34;;;;;;;236.87;140.87;;;154.10;2252.80;;;;;;6192701;23;20016;-91
2021/01/31 01:49:01;;;;;;;;;;;154.10;2252.80;;;;;;6192559;23;20008;-92
2021/01/31 01:51:52;;;;;;;204.83;132.60;;;154.30;2252.80;;;;;;6194429;23;19906;-86
2021/01/31 01:54:27;;;;;;;203.53;125.03;;;154.30;2252.80;;;;;;6192117;23;20407;-91
2021/01/31 01:56:57;;;;;;;215.47;131.40;;;154.40;2252.80;;;;;;6192501;23;20007;-86
2021/01/31 01:59:23;;;;;;;213.00;126.63;;;154.50;2252.80;;;;;;6192332;23;20096;-88
2021/01/31 02:02:21;;;;;;;233.03;129.30;;;154.40;2252.80;;;;;;6218053;23;20028;-90
2021/01/31 02:04:47;;;;;;;205.03;121.33;;;154.30;2252.80;;;;;;6191899;23;20443;-85
2021/01/31 02:07:13;;;;;;;199.23;121.83;;;154.50;2252.80;;;;;;6192194;23;20009;-92
2021/01/31 02:09:46;;;;;;;214.73;128.63;;;179.20;2252.80;;;;;;6191559;23;20400;-92
2021/01/31 02:12:14;;;;;;;203.83;125.70;;;179.20;2252.80;;;;;;6217482;23;20067;-91
2021/01/31 02:14:44;;;;;;;209.53;131.03;;;179.20;2252.80;;;;;;6191787;23;20009;-90
2021/01/31 02:17:26;;;;;;;220.20;133.40;;;179.20;2252.80;;;;;;6191631;23;20047;-90
2021/01/31 02:20:28;;;;;;;221.67;133.43;;;179.30;2252.80;;;;;;6191479;23;20052;-89
2021/01/31 02:23:26;;;;;;;214.00;132.70;;;179.30;2252.80;;;;;;6192111;23;20001;-91
2021/01/31 02:26:22;;;;;;;209.20;127.50;;;179.30;2252.80;;;;;;6068564;23;20369;-91
2021/01/31 02:29:02;;;;;;;205.43;127.53;;;179.30;2252.80;;;;;;5975303;24;20008;-90
2021/01/31 02:31:41;;;;;;;213.20;131.73;;;179.30;2252.80;;;;;;5983523;24;20111;-91
2021/01/31 02:34:16;;;;;;;205.23;127.97;;;179.20;2252.80;;;;;;5983047;23;20016;-91
2021/01/31 02:37:10;;;;;;;225.87;135.50;;;179.20;2252.80;;;;;;5960477;24;20012;-91
2021/01/31 02:39:39;;;;;;;;;;;154.40;2252.80;;;;;;5983898;24;20079;-90
2021/01/31 02:42:11;;;;;;;254.10;147.63;;;154.30;2252.80;;;;;;5960267;24;19958;-90
2021/01/31 02:44:41;;;;;;;266.80;151.50;;;154.40;2252.80;;;;;;5983390;24;20012;-90
2021/01/31 02:47:18;;;;;;;253.67;155.73;;;154.50;2252.80;;;;;;5983878;24;20052;-87
2021/01/31 02:49:59;;;;;;;254.57;158.90;;;154.40;2252.80;;;;;;5982743;24;20016;-90
2021/01/31 02:52:34;;;;;;;255.53;152.27;;;154.50;2252.80;;;;;;5960653;24;20056;-89
2021/01/31 02:55:29;;;;;;;249.83;153.57;;;179.20;2252.80;;;;;;5960326;24;20008;-90
2021/01/31 02:58:19;;;;;;;246.57;154.10;;;154.30;2252.80;;;;;;5960620;24;20010;-91
2021/01/31 03:01:13;;;;;;;225.47;140.93;;;154.50;2252.80;;;;;;5960021;24;20056;-91
2021/01/31 03:03:43;;;;;;;236.70;143.13;;;154.50;2252.80;;;;;;5931693;24;20005;-91
2021/01/31 03:06:18;;;;;;;217.87;136.13;;;154.40;2252.80;;;;;;6027597;23;20021;-91
2021/01/31 03:08:52;;;;;;;219.97;135.40;;;179.20;2252.80;;;;;;6073154;23;20030;-91
2021/01/31 03:11:53;;;;;;;239.97;143.67;;;179.20;2252.80;;;;;;6072576;23;20019;-92
2021/01/31 03:14:28;;;;;;;231.90;139.60;;;179.20;2252.80;;;;;;6014370;23;20095;-89
2021/01/31 03:16:59;;;;;;;193.20;110.53;;;179.20;2252.80;;;;;;6055806;23;20030;-91
2021/01/31 03:19:36;;;;;;;190.25;110.93;;;179.20;2252.80;;;;;;6055578;23;20007;-90
2021/01/31 03:22:11;;;;;;;151.70;90.67;;;154.50;2252.80;;;;;;6035654;23;20007;-92
2021/01/31 03:24:43;;;;;;;170.70;103.20;;;179.20;2252.80;;;;;;6026836;23;20021;-91
2021/01/31 03:27:16;;;;;;;172.40;101.28;;;179.20;2252.80;;;;;;6052887;23;20011;-91
2021/01/31 03:29:45;;;;;;;168.30;102.10;;;179.20;2252.80;;;;;;6042495;23;20054;-93
2021/01/31 03:32:22;;;;;;;156.60;95.47;;;179.20;2252.80;;;;;;6048537;23;19999;-93
2021/01/31 03:35:04;;;;;;;160.73;91.67;;;154.50;2252.80;;;;;;6050885;23;20007;-90
2021/01/31 03:37:39;;;;;;;160.27;94.67;;;179.20;2252.80;;;;;;6053264;23;20030;-91
2021/01/31 03:40:07;;;;;;;153.57;92.60;;;179.20;2252.80;;;;;;6085360;23;20017;-91
2021/01/31 03:42:36;;;;;;;150.57;90.77;;;179.20;2252.80;;;;;;6142296;23;20010;-93
2021/01/31 03:45:06;;;;;;;135.70;84.80;;;154.50;2252.80;;;;;;6141295;23;20074;-90
2021/01/31 03:47:46;;;;;;;166.53;93.97;;;179.20;2252.80;;;;;;6144838;23;20053;-87
2021/01/31 03:50:12;;;;;;;160.93;97.30;;;179.20;2252.80;;;;;;6204648;23;20019;-88
2021/01/31 03:52:38;;;;;;;156.53;94.60;;;154.50;2252.80;;;;;;6202203;23;20007;-93
2021/01/31 03:55:05;;;;;;;162.23;97.77;;;154.40;2252.80;;;;;;6201679;23;20009;-90
2021/01/31 03:57:36;;;;;;;178.23;107.70;;;154.30;2252.80;;;;;;6195326;23;20001;-88
2021/01/31 04:00:05;;;;;;;189.03;117.53;;;154.10;2252.80;;;;;;6193782;23;20083;-88
2021/01/31 04:02:37;;;;;;;197.40;124.33;;;154.10;2252.80;;;;;;6192908;23;20008;-89
2021/01/31 04:05:04;;;;;;;188.27;117.37;;;154.10;2252.80;;;;;;6191531;23;20012;-89
2021/01/31 04:07:35;;;;;;;193.20;120.80;;;154.10;2252.80;;;;;;6191835;23;20051;-88
2021/01/31 04:10:02;;;;;;;186.77;114.67;;;154.00;2252.80;;;;;;6191134;23;20115;-89
2021/01/31 04:12:33;;;;;;;177.33;110.50;;;154.00;2252.80;;;;;;6186802;23;20506;-88
2021/01/31 04:15:32;;;;;;;177.97;109.53;;;153.90;2252.80;;;;;;6185392;23;20012;-88
2021/01/31 04:18:00;;;;;;;173.53;105.17;;;154.00;2252.80;;;;;;6173962;23;20009;-89
2021/01/31 04:20:25;;;;;;;176.03;104.40;;;154.00;2252.80;;;;;;6185460;23;20013;-87
2021/01/31 04:22:51;;;;;;;181.80;107.43;;;154.00;2252.80;;;;;;6187297;23;20017;-89
2021/01/31 04:25:17;;;;;;;175.90;107.83;;;154.10;2252.80;;;;;;6185405;23;20043;-89
2021/01/31 04:27:42;;;;;;;171.43;104.53;;;154.20;2252.80;;;;;;6186006;23;20001;-89
2021/01/31 04:30:09;;;;;;;168.57;103.10;;;154.20;2252.80;;;;;;6185729;23;20001;-89
2021/01/31 04:32:36;;;;;;;185.70;111.67;;;154.20;2252.80;;;;;;6185645;23;19997;-88
2021/01/31 04:35:10;;;;;;;186.23;111.20;;;154.10;2252.80;;;;;;6185249;23;20004;-88
2021/01/31 04:37:35;;;;;;;174.63;106.63;;;154.20;2252.80;;;;;;6185963;23;20005;-88
2021/01/31 04:40:05;;;;;;;160.93;101.20;;;154.20;2252.80;;;;;;6186396;23;20036;-88
2021/01/31 04:42:31;;;;;;;140.33;92.43;;;154.10;2252.80;;;;;;6185829;23;20013;-89
2021/01/31 04:44:56;;;;;;;139.67;85.80;;;154.10;2252.80;;;;;;6185064;23;20009;-89
2021/01/31 04:47:34;;;;;;;118.23;77.07;;;154.10;2252.80;;;;;;6187512;23;20009;-88
2021/01/31 04:50:09;;;;;;;124.37;76.57;;;154.00;2252.80;;;;;;6187500;23;20032;-88
2021/01/31 04:52:54;;;;;;;141.10;86.33;;;154.10;2252.80;;;;;;6187455;23;20004;-88
2021/01/31 04:55:44;;;;;;;98.07;64.27;;;154.00;2252.80;;;;;;6187536;23;20009;-88
2021/01/31 04:58:15;;;;;;;89.93;54.70;;;154.00;2252.80;;;;;;6187505;23;20024;-88
2021/01/31 05:01:04;;;;;;;76.83;50.10;;;154.00;2252.80;;;;;;6187745;23;20041;-88
2021/01/31 05:03:33;;;;;;;77.10;51.30;;;154.10;2252.80;;;;;;6173741;23;20012;-88
2021/01/31 05:06:06;;;;;;;82.37;52.30;;;154.10;2252.80;;;;;;6186977;23;20096;-88
2021/01/31 05:08:32;;;;;;;77.07;49.27;;;154.10;2252.80;;;;;;6187425;23;20037;-88
2021/01/31 05:11:38;;;;;;;83.77;52.67;;;154.00;2252.80;;;;;;6187075;23;20450;-88
2021/01/31 05:14:30;;;;;;;113.70;67.07;;;154.20;2252.80;;;;;;6187144;23;20100;-88
2021/01/31 05:16:56;;;;;;;115.40;73.03;;;154.20;2252.80;;;;;;6187111;23;20032;-88
2021/01/31 05:19:29;;;;;;;105.00;66.70;;;154.00;2252.80;;;;;;6187767;23;20072;-87
2021/01/31 05:25:03;;;;;;;110.07;72.03;;;153.90;2252.80;;;;;;6189625;23;20013;-86
2021/01/31 05:27:33;;;;;;;110.57;71.00;;;154.00;2252.80;;;;;;6187550;23;20009;-88
2021/01/31 05:29:58;;;;;;;102.60;66.90;;;154.00;2252.80;;;;;;6186719;23;20010;-87
2021/01/31 05:32:24;;;;;;;135.73;81.17;;;154.00;2252.80;;;;;;6186877;23;20371;-88
2021/01/31 05:34:51;;;;;;;132.77;80.90;;;154.10;2252.80;;;;;;6188455;23;20072;-87
2021/01/31 05:37:26;;;;;;;110.00;66.40;;;154.10;2252.80;;;;;;6187525;23;20032;-88
2021/01/31 05:39:55;;;;;;;98.50;59.43;;;154.20;2252.80;;;;;;6187181;23;20037;-87
2021/01/31 05:42:30;;;;;;;89.80;54.27;;;154.20;2252.80;;;;;;6187178;23;20013;-88
2021/01/31 05:45:31;;;;;;;84.47;54.17;;;154.30;2252.80;;;;;;6186947;23;20013;-88
2021/01/31 05:47:58;;;;;;;86.70;54.00;;;154.30;2252.80;;;;;;6187217;23;20005;-87
2021/01/31 05:50:35;;;;;;;82.97;54.63;;;154.40;2252.80;;;;;;6187697;23;20110;-87
2021/01/31 05:53:21;;;;;;;94.30;57.13;;;154.40;2252.80;;;;;;6187253;23;20025;-89
2021/01/31 05:55:47;;;;;;;79.47;54.67;;;154.40;2252.80;;;;;;6186981;23;20004;-88
2021/01/31 05:58:13;;;;;;;88.07;55.40;;;154.50;2252.80;;;;;;6187355;23;19998;-88
2021/01/31 06:00:39;;;;;;;83.10;53.50;;;154.40;2252.80;;;;;;6186928;23;20009;-88
2021/01/31 06:03:08;;;;;;;85.53;53.33;;;154.50;2252.80;;;;;;6187211;23;20457;-87
2021/01/31 06:05:34;;;;;;;89.50;52.80;;;154.50;2252.80;;;;;;6187553;23;20040;-88
2021/01/31 06:08:25;;;;;;;82.97;53.47;;;154.50;2252.80;;;;;;6186829;23;20001;-88
2021/01/31 06:11:09;;;;;;;92.37;58.17;;;154.50;2252.80;;;;;;6187186;23;20033;-88
2021/01/31 06:13:37;;;;;;;97.47;62.37;;;179.20;2252.80;;;;;;6187016;23;20021;-88
2021/01/31 06:16:18;;;;;;;108.30;72.50;;;154.50;2252.80;;;;;;6188027;23;20068;-88
2021/01/31 06:18:58;;;;;;;95.23;58.97;;;154.50;2252.80;;;;;;6187061;23;20096;-87
2021/01/31 06:21:45;;;;;;;85.40;55.23;;;154.50;2252.80;;;;;;6187865;23;20039;-88
2021/01/31 06:24:38;;;;;;;83.63;54.97;;;179.20;2252.80;;;;;;6186785;23;20005;-88
2021/01/31 06:27:04;;;;;;;102.07;61.83;;;179.20;2252.80;;;;;;6187006;23;20005;-88
2021/01/31 06:29:41;;;;;;;158.67;96.03;;;154.40;2252.80;;;;;;6186635;23;20004;-88
2021/01/31 06:32:12;;;;;;;156.43;98.23;;;154.40;2252.80;;;;;;6186953;23;20079;-87
2021/01/31 06:34:45;;;;;;;142.23;90.43;;;154.50;2252.80;;;;;;6186341;23;20001;-88
2021/01/31 06:37:41;;;;;;;134.20;80.30;;;179.20;2252.80;;;;;;6186848;23;20001;-88
2021/01/31 06:40:29;;;;;;;124.97;78.43;;;179.20;2252.80;;;;;;6186684;23;20077;-88
2021/01/31 06:43:03;;;;;;;135.40;88.07;;;179.30;2252.80;;;;;;6187327;23;20439;-88
2021/01/31 06:45:59;;;;;;;136.50;84.73;;;179.30;2252.80;;;;;;6186500;23;20013;-87
2021/01/31 06:48:40;;;;;;;144.33;91.10;;;179.30;2252.80;;;;;;6187672;23;20011;-87
2021/01/31 06:51:41;;;;;;;130.13;85.90;;;179.30;2252.80;;;;;;6186207;23;20443;-86
2021/01/31 06:54:18;;;;;;;122.20;77.33;;;179.40;2252.80;;;;;;6186772;23;20012;-87
2021/01/31 06:57:02;;;;;;;106.57;68.90;;;179.40;2252.80;;;;;;6187924;23;20033;-87
2021/01/31 06:59:45;;;;;;;133.73;82.47;;;179.50;2252.80;;;;;;6186589;23;20055;-86
2021/01/31 07:02:38;;;;;;;115.15;74.07;;;179.50;2252.80;;;;;;6186297;23;20005;-87
2021/01/31 07:05:05;;;;;;;140.67;86.27;;;179.50;2252.80;;;;;;6185858;23;20013;-88
2021/01/31 07:08:05;;;;;;;152.80;90.57;;;179.50;2252.80;;;;;;6186031;23;20055;-87
2021/01/31 07:11:06;;;;;;;159.20;93.00;;;179.50;2252.80;;;;;;6186030;23;20005;-88
2021/01/31 07:13:46;;;;;;;192.73;115.17;;;179.60;2252.80;;;;;;6185946;23;20032;-87
2021/01/31 07:19:36;;;;;;;208.40;125.30;;;179.60;2252.80;;;;;;6210842;23;20035;-87
2021/01/31 07:22:22;;;;;;;256.80;155.10;;;179.60;2252.80;;;;;;6217955;23;20001;-87
2021/01/31 07:25:14;;;;;;;259.20;163.13;;;179.70;2252.80;;;;;;6191133;23;20091;-86
2021/01/31 07:27:58;;;;;;;210.13;127.80;;;179.70;2252.80;;;;;;6191424;23;20008;-87
2021/01/31 07:30:35;;;;;;;223.10;133.73;;;179.70;2252.80;;;;;;6191513;23;20045;-87
2021/01/31 07:33:42;;;;;;;281.40;167.07;;;179.70;2252.80;;;;;;6189578;23;20455;-87
2021/01/31 07:36:31;;;;;;;243.60;151.50;;;179.60;2252.80;;;;;;6217689;23;20043;-88
2021/01/31 07:39:00;;;;;;;226.63;147.90;;;179.70;2252.80;;;;;;6191382;23;20012;-86
2021/01/31 07:41:31;;;;;;;214.53;136.10;;;179.70;2252.80;;;;;;6191379;23;20012;-88
2021/01/31 07:44:06;;;;;;;205.90;127.60;;;179.80;2252.80;;;;;;6191636;23;20007;-86
2021/01/31 07:46:33;;;;;;;164.87;104.73;;;179.90;2252.80;;;;;;6191067;23;20070;-87
2021/01/31 07:49:04;;;;;;;168.03;104.80;;;179.80;2252.80;;;;;;6188499;23;20073;-87
2021/01/31 07:51:30;;;;;;;155.40;97.63;;;179.70;2252.80;;;;;;6190855;23;20009;-88
2021/01/31 07:53:57;;;;;;;150.77;88.93;;;179.90;2252.80;;;;;;6191969;23;20047;-88
2021/01/31 07:56:27;;;;;;;277.10;163.23;;;179.80;2252.80;;;;;;6190408;23;20005;-87
2021/01/31 07:58:57;;;;;;;298.50;189.93;;;179.60;2252.80;;;;;;6191831;23;20004;-88
2021/01/31 08:01:41;;;;;;;270.23;164.20;;;179.50;2252.80;;;;;;6190843;23;20005;-86
2021/01/31 08:04:16;;;;;;;308.53;193.23;;;179.60;2252.80;;;;;;6190363;23;20008;-88
2021/01/31 08:06:58;;;;;;;323.90;200.20;;;179.60;2252.80;;;;;;6191783;23;20009;-88
2021/01/31 08:09:29;;;;;;;278.10;178.30;;;179.70;2252.80;;;;;;6216878;23;19997;-88
2021/01/31 08:11:59;;;;;;;212.83;136.40;;;179.90;2252.80;;;;;;6190310;23;20105;-85
2021/01/31 08:15:02;;;;;;;236.10;143.33;;;204.80;2252.80;;;;;;6216720;23;20000;-86
2021/01/31 08:17:47;;;;;;;279.83;168.43;;;205.50;2252.80;;;;;;6190618;23;20009;-87
2021/01/31 08:20:30;;;;;;;296.50;181.20;;;205.50;2252.80;;;;;;6190131;23;20039;-90
2021/01/31 08:23:22;;;;;;;320.40;192.02;;;205.40;2252.80;;;;;;6190296;23;20005;-91
2021/01/31 08:26:05;;;;;;;304.27;183.70;;;205.30;2252.80;;;;;;6189908;23;20012;-93
2021/01/31 08:28:37;;;;;;;313.95;192.38;;;205.20;2252.80;;;;;;6191347;23;20032;-92
2021/01/31 08:31:16;;;;;;;269.25;167.93;;;205.10;2252.80;;;;;;6191393;23;20009;-89
2021/01/31 08:33:44;;;;;;;276.00;178.65;;;205.10;2252.80;;;;;;6208759;23;20092;-88
2021/01/31 08:36:19;;;;;;;401.38;252.45;;;205.00;2252.80;;;;;;6215854;23;20014;-85
2021/01/31 08:38:50;;;;;;;313.48;201.13;;;205.10;2252.80;;;;;;6185164;23;20005;-84
2021/01/31 08:41:34;;;;;;;293.20;191.23;;;205.20;2252.80;;;;;;6180310;23;20505;-85
2021/01/31 08:44:15;;;;;;;280.17;182.48;;;205.20;2252.80;;;;;;6215948;23;20009;-89
2021/01/31 08:47:03;;;;;;;313.50;199.73;;;205.30;2252.80;;;;;;6194016;23;20048;-87
2021/01/31 08:49:29;;;;;;;277.35;176.75;;;205.30;2252.80;;;;;;6188644;23;20062;-91
2021/01/31 08:52:20;;;;;;;250.63;161.52;;;205.30;2252.80;;;;;;6185538;23;20039;-87
2021/01/31 08:54:58;;;;;;;158.55;105.70;;;205.40;2252.80;;;;;;6189178;23;20000;-89
2021/01/31 08:57:25;;;;;;;151.48;99.68;;;205.40;2252.80;;;;;;6190344;23;20074;-87
2021/01/31 08:59:51;;;;;;;150.57;99.53;;;205.40;2252.80;;;;;;6187754;23;20004;-87
2021/01/31 09:02:17;;;;;;;134.75;90.28;;;205.50;2227.20;;;;;;6188064;23;20004;-86
2021/01/31 09:04:56;;;;;;;163.43;106.72;;;205.50;2176.00;;;;;;6188179;23;20040;-87
2021/01/31 09:07:33;;;;;;;160.10;108.45;;;205.30;2176.00;;;;;;6188756;23;20641;-88
2021/01/31 09:10:17;;;;;;;166.32;109.10;;;205.40;2227.20;;;;;;6186213;23;20088;-86
2021/01/31 09:12:43;;;;;;;156.40;100.95;;;205.30;2252.80;;;;;;6186946;23;19981;-88
2021/01/31 09:15:38;;;;;;;165.93;108.95;;;205.30;2227.20;;;;;;6189157;23;20001;-89
2021/01/31 09:18:30;;;;;;;241.60;156.88;;;205.40;2227.20;;;;;;6098802;23;20489;-89
2021/01/31 09:20:56;;;;;;;202.25;132.05;;;205.50;2227.20;;;;;;6094238;23;20061;-90
2021/01/31 09:23:34;;;;;;;173.32;120.55;;;205.70;2252.80;;;;;;6100248;23;20385;-89
2021/01/31 09:26:02;;;;;;;168.75;111.82;;;230.40;2252.80;;;;;;6124866;23;20020;-90
2021/01/31 09:28:28;;;;;;;171.77;114.15;;;230.40;2201.60;;;;;;6098977;23;19998;-90
2021/01/31 09:30:58;;;;;;;249.07;171.50;;;230.40;2176.00;;;;;;6099291;23;20013;-89
2021/01/31 09:33:38;;;;;;;189.40;129.48;;;230.40;2176.00;;;;;;6105433;23;20002;-91
2021/01/31 09:36:31;;;;;;;226.02;147.30;;;230.50;2150.40;;;;;;6103661;23;20010;-91
2021/01/31 09:39:23;;;;;;;233.18;157.98;;;230.50;2176.00;;;;;;6096190;23;20034;-92
2021/01/31 09:41:58;;;;;;;301.15;201.00;;;230.60;2176.00;;;;;;6119636;23;20033;-86
2021/01/31 09:44:24;;;;;;;265.88;177.88;;;230.60;2252.80;;;;;;6190754;23;20035;-88
2021/01/31 09:50:05;;;;;;;202.13;132.77;;;230.70;2252.80;;;;;;6200608;23;20081;-88
2021/01/31 09:52:31;;;;;;;182.35;124.63;;;230.70;2252.80;;;;;;6189569;23;20434;-87
2021/01/31 09:55:27;;;;;;;197.65;132.05;;;230.80;2252.80;;;;;;6187795;23;20055;-88
2021/01/31 09:57:54;;;;;;;203.55;134.02;;;230.80;2252.80;;;;;;6190421;23;20008;-86
2021/01/31 10:00:29;;;;;;;192.30;132.77;;;230.70;2252.80;;;;;;6189014;23;20013;-85
2021/01/31 10:03:11;;;;;;;183.02;121.15;;;230.70;2252.80;;;;;;6187037;23;20795;-86
2021/01/31 10:05:37;;;;;;;192.35;128.77;;;230.80;2252.80;;;;;;6188980;23;20013;-86
2021/01/31 10:08:06;;;;;;;195.75;135.55;;;230.80;2252.80;;;;;;6188557;23;20494;-87
2021/01/31 10:10:40;;;;;;;201.73;136.77;;;230.80;2252.80;;;;;;6191098;23;20462;-87
2021/01/31 10:13:37;;;;;;;203.57;136.40;;;230.80;2252.80;;;;;;6191498;23;20066;-86
2021/01/31 10:16:16;;;;;;;197.13;128.63;;;230.80;2252.80;;;;;;6192203;23;20000;-87
2021/01/31 10:18:42;;;;;;;180.25;120.32;;;230.90;2252.80;;;;;;6182936;23;20008;-85
2021/01/31 10:21:20;;;;;;;200.02;132.73;;;230.90;2227.20;;;;;;6188795;23;20005;-84
2021/01/31 10:23:47;;;;;;;194.25;134.02;;;230.90;2227.20;;;;;;6189924;23;20091;-85
2021/01/31 10:26:19;;;;;;;195.57;136.50;;;231.10;2227.20;;;;;;6188735;23;20016;-86
2021/01/31 10:28:57;;;;;;;223.18;149.85;;;231.10;2201.60;;;;;;6188109;23;20001;-86
2021/01/31 10:31:37;;;;;;;267.55;178.98;;;231.00;2227.20;;;;;;6190537;23;20007;-85
2021/01/31 10:34:26;;;;;;;242.43;160.85;;;231.00;2227.20;;;;;;6187772;23;20379;-90
2021/01/31 10:37:29;;;;;;;242.50;158.65;;;231.00;2201.60;;;;;;6191450;23;20008;-86
2021/01/31 10:39:58;;;;;;;233.35;163.73;;;231.00;2227.20;;;;;;6190293;23;20008;-86
2021/01/31 10:42:36;;;;;;;258.42;176.80;;;231.00;2201.60;;;;;;6189457;23;20005;-89
2021/01/31 10:45:35;;;;;;;201.93;138.20;;;231.00;2227.20;;;;;;6191362;23;20016;-86
2021/01/31 10:48:03;;;;;;;191.70;134.23;;;231.10;2227.20;;;;;;6216865;23;20382;-87
2021/01/31 10:50:29;;;;;;;142.38;103.22;;;231.10;2252.80;;;;;;6186767;23;21142;-87
2021/01/31 10:52:58;;;;;;;137.75;95.55;;;231.00;2252.80;;;;;;6192410;23;20505;-83
2021/01/31 10:55:30;;;;;;;110.13;78.35;;;231.10;2227.20;;;;;;6189830;23;20058;-84
2021/01/31 10:58:11;;;;;;;114.85;76.90;;;231.10;2201.60;;;;;;6191774;23;20058;-84
2021/01/31 11:00:50;;;;;;;75.82;51.03;;;231.20;2176.00;;;;;;6216819;23;20001;-83
2021/01/31 11:03:25;;;;;;;79.22;51.85;;;231.10;2176.00;;;;;;6189756;23;20130;-86
2021/01/31 11:05:54;;;;;;;82.57;54.30;;;231.10;2124.80;;;;;;6190423;23;20020;-85
2021/01/31 11:08:32;;;;;;;89.63;56.50;;;231.10;2150.40;;;;;;6218149;23;20024;-84
2021/01/31 11:11:04;;;;;;;78.13;52.35;;;231.10;2150.40;;;;;;6190749;23;20457;-84
2021/01/31 11:13:39;;;;;;;76.85;50.47;;;231.20;2150.40;;;;;;6190347;23;20027;-87
2021/01/31 11:16:08;;;;;;;87.93;56.33;;;231.20;2124.80;;;;;;6191658;23;20005;-88
2021/01/31 11:19:09;;;;;;;81.65;56.80;;;231.20;2150.40;;;;;;6212856;23;20005;-87
2021/01/31 11:21:40;;;;;;;99.63;67.43;;;231.20;2124.80;;;;;;6168005;23;20004;-88
2021/01/31 11:24:12;;;;;;;115.82;77.70;;;231.20;2150.40;;;;;;6212314;23;19981;-94
2021/01/31 11:26:42;;;;;;;99.35;63.53;;;231.30;2124.80;;;;;;6214733;23;20043;-90
2021/01/31 11:29:13;;;;;;;89.93;57.65;;;256.00;2150.40;;;;;;6235342;23;19996;-90
2021/01/31 11:31:39;;;;;;;116.75;66.57;;;256.00;2124.80;;;;;;6215355;23;20068;-89
2021/01/31 11:34:05;;;;;;;83.28;55.15;;;256.10;2073.60;;;;;;6242102;23;19992;-86
2021/01/31 11:36:40;;;;;;;84.38;58.33;;;256.10;2099.20;;;;;;6215669;23;20011;-96
2021/01/31 11:39:09;;;;;;;65.50;47.60;;;256.20;2099.20;;;;;;6214118;23;20020;-94
2021/01/31 11:41:36;;;;;;;72.63;43.03;;;256.20;2073.60;;;;;;6214219;23;20009;-91
2021/01/31 11:44:03;;;;;;;61.70;44.08;;;256.30;2073.60;;;;;;6211942;23;20019;-93
2021/01/31 11:46:29;;;;;;;69.85;47.58;;;256.30;2073.60;;;;;;6207313;23;20410;-88
2021/01/31 11:51:45;;;;;;;72.88;48.60;;;256.20;2073.60;;;;;;6216116;23;20016;-94
2021/01/31 11:54:40;;;;;;;73.18;46.75;;;256.30;2048.00;;;;;;6217319;23;20007;-93
2021/01/31 11:57:31;;;;;;;66.75;44.60;;;256.20;2048.00;;;;;;6192875;23;20008;-93
2021/01/31 12:00:07;;;;;;;;;;;;;;;;;;;;;
2021/01/31 12:02:33;;;;;;;68.93;44.75;;;256.10;2048.00;;;;;;6217223;23;20080;-91
2021/01/31 12:05:00;;;;;;;57.78;35.35;;;256.10;2022.40;;;;;;6190813;23;20016;-89
2021/01/31 12:07:25;;;;;;;72.43;44.00;;;256.00;2022.40;;;;;;6191887;23;20011;-89
2021/01/31 12:10:04;;;;;;;;;;;;;;;;;;;;;
2021/01/31 12:12:39;;;;;;;73.68;44.40;;;256.10;2022.40;;;;;;6218112;23;20076;-88
2021/01/31 12:15:21;;;;;;;63.58;40.33;;;256.10;2022.40;;;;;;6191699;23;20026;-88
2021/01/31 12:18:33;;;;;;;70.88;45.55;;;256.10;2022.40;;;;;;6187921;23;20028;-90
2021/01/31 12:21:49;;;;;;;48.90;32.53;;;256.10;2022.40;;;;;;6217226;23;20012;-87
2021/01/31 12:24:44;;;;;;;90.78;53.47;;;256.10;1996.80;;;;;;6200861;23;20007;-89
2021/01/31 12:27:09;;;;;;;61.80;36.45;;;256.10;1996.80;;;;;;6200325;23;20005;-88
2021/01/31 12:29:35;;;;;;;72.65;42.13;;;256.20;1996.80;;;;;;6206279;23;20023;-92
2021/01/31 12:32:37;;;;;;;64.30;40.67;;;256.20;1996.80;;;;;;6215829;23;20088;-90
2021/01/31 12:35:07;;;;;;;78.20;50.22;;;256.20;1996.80;;;;;;6213402;23;19999;-87
2021/01/31 12:37:56;;;;;;;77.50;45.00;;;256.20;1996.80;;;;;;6211415;23;19988;-87
2021/01/31 12:40:26;;;;;;;58.42;38.47;;;256.20;1971.20;;;;;;6242510;23;20036;-88
2021/01/31 12:42:52;;;;;;;62.95;36.45;;;256.30;1971.20;;;;;;6200356;23;20054;-95
2021/01/31 12:45:20;;;;;;;91.18;54.15;;;256.60;1971.20;;;;;;6207645;23;20012;-88
2021/01/31 12:47:46;;;;;;;72.93;48.85;;;256.50;1996.80;;;;;;6206026;23;20001;-86
2021/01/31 12:50:14;;;;;;;68.25;40.88;;;256.60;1996.80;;;;;;6213372;23;19996;-93
2021/01/31 12:52:39;;;;;;;70.88;43.83;;;256.60;1971.20;;;;;;6210652;23;20066;-95
2021/01/31 12:55:09;;;;;;;80.30;49.65;;;256.60;1971.20;;;;;;6206428;23;20577;-94